createdAt,value
2022-07-25T00:01:51.483Z,25.39
2022-07-25T00:04:19.238Z,25.39
2022-07-25T00:06:46.782Z,25.38
2022-07-25T00:09:14.410Z,25.36
2022-07-25T00:11:41.927Z,25.39
2022-07-25T00:14:10.111Z,25.38
2022-07-25T00:16:40.674Z,25.38
2022-07-25T00:19:08.121Z,25.36
2022-07-25T00:21:35.575Z,25.37
2022-07-25T00:24:03.536Z,25.37
2022-07-25T00:26:33.530Z,25.37
2022-07-25T00:29:04.042Z,25.36
2022-07-25T00:31:31.656Z,25.38
2022-07-25T00:33:59.138Z,25.36
2022-07-25T00:36:26.596Z,25.38
2022-07-25T00:38:54.016Z,25.38
2022-07-25T00:41:21.611Z,25.38
2022-07-25T00:43:49.082Z,25.39
2022-07-25T00:46:18.915Z,25.38
2022-07-25T00:48:46.978Z,25.38
2022-07-25T00:51:14.559Z,25.38
2022-07-25T00:53:42.322Z,25.38
2022-07-25T00:56:09.810Z,25.38
2022-07-25T00:58:37.350Z,25.37
2022-07-25T01:01:04.866Z,25.38
2022-07-25T01:03:35.360Z,25.38
2022-07-25T01:06:02.925Z,25.38
2022-07-25T01:08:30.388Z,25.36
2022-07-25T01:10:57.839Z,25.37
2022-07-25T01:13:25.591Z,25.39
2022-07-25T01:15:53.167Z,25.38
2022-07-25T01:18:20.698Z,25.37
2022-07-25T01:20:48.330Z,25.36
2022-07-25T01:23:15.757Z,25.39
2022-07-25T01:25:43.236Z,25.38
2022-07-25T01:28:10.687Z,25.36
2022-07-25T01:30:38.206Z,25.36
2022-07-25T01:33:06.655Z,25.36
2022-07-25T01:35:36.260Z,25.38
2022-07-25T01:38:06.476Z,25.39
2022-07-25T01:40:36.991Z,25.39
2022-07-25T01:43:04.419Z,25.39
2022-07-25T01:45:31.883Z,25.38
2022-07-25T01:47:59.355Z,25.37
2022-07-25T01:50:27.309Z,25.37
2022-07-25T01:52:54.734Z,25.35
2022-07-25T01:55:22.256Z,25.35
2022-07-25T01:57:50.304Z,25.38
2022-07-25T02:00:18.243Z,25.38
2022-07-25T02:02:45.781Z,25.39
2022-07-25T02:05:14.002Z,25.37
2022-07-25T02:07:41.436Z,25.39
2022-07-25T02:10:09.286Z,25.37
2022-07-25T02:12:37.941Z,25.36
2022-07-25T02:15:06.206Z,25.39
2022-07-25T02:17:33.624Z,25.36
2022-07-25T02:20:01.088Z,25.38
2022-07-25T02:22:31.229Z,25.37
2022-07-25T02:24:58.672Z,25.39
2022-07-25T02:27:26.149Z,25.38
2022-07-25T02:29:53.637Z,25.38
2022-07-25T02:32:21.060Z,25.37
2022-07-25T02:34:49.294Z,25.38
2022-07-25T02:37:16.759Z,25.38
2022-07-25T02:39:44.175Z,25.38
2022-07-25T02:42:11.671Z,25.38
2022-07-25T02:44:39.153Z,25.37
2022-07-25T02:47:06.672Z,25.38
2022-07-25T02:49:36.220Z,25.38
2022-07-25T02:52:03.929Z,25.38
2022-07-25T02:54:31.356Z,25.37
2022-07-25T02:56:58.861Z,25.38
2022-07-25T02:59:26.294Z,25.36
2022-07-25T03:01:59.886Z,25.38
2022-07-25T03:04:27.368Z,25.38
2022-07-25T03:06:54.811Z,25.36
2022-07-25T03:09:22.276Z,25.36
2022-07-25T03:11:51.875Z,25.37
2022-07-25T03:14:19.379Z,25.36
2022-07-25T03:16:46.775Z,25.35
2022-07-25T03:19:17.237Z,25.34
2022-07-25T03:21:46.143Z,25.35
2022-07-25T03:24:15.484Z,25.36
2022-07-25T03:26:42.923Z,25.35
2022-07-25T03:29:10.389Z,25.35
2022-07-25T03:31:38.451Z,25.35
2022-07-25T03:34:08.387Z,25.34
2022-07-25T03:36:35.927Z,25.33
2022-07-25T03:39:05.657Z,25.33
2022-07-25T03:41:35.312Z,25.33
2022-07-25T03:44:03.095Z,25.33
2022-07-25T03:46:30.839Z,25.32
2022-07-25T03:48:58.363Z,25.32
2022-07-25T03:51:25.937Z,25.32
2022-07-25T03:54:02.963Z,25.32
2022-07-25T03:56:38.392Z,25.31
2022-07-25T03:59:13.316Z,25.33
2022-07-25T04:01:41.107Z,25.31
2022-07-25T04:04:10.061Z,25.31
2022-07-25T04:06:38.162Z,25.32
2022-07-25T04:09:06.140Z,25.31
2022-07-25T04:11:35.778Z,25.32
2022-07-25T04:14:03.410Z,25.31
2022-07-25T04:16:31.355Z,25.32
2022-07-25T04:19:01.688Z,25.32
2022-07-25T04:21:29.355Z,25.31
2022-07-25T04:23:56.842Z,25.32
2022-07-25T04:26:24.306Z,25.31
2022-07-25T04:28:51.750Z,25.32
2022-07-25T04:31:19.500Z,25.31
2022-07-25T04:33:46.996Z,25.32
2022-07-25T04:36:14.427Z,25.31
2022-07-25T04:38:41.992Z,25.33
2022-07-25T04:41:09.457Z,25.33
2022-07-25T04:43:37.158Z,25.32
2022-07-25T04:46:04.658Z,25.33
2022-07-25T04:48:32.156Z,25.33
2022-07-25T04:50:59.639Z,25.32
2022-07-25T04:53:27.485Z,25.33
2022-07-25T04:55:55.058Z,25.32
2022-07-25T04:58:25.403Z,25.32
2022-07-25T05:00:52.961Z,25.32
2022-07-25T05:03:20.398Z,25.33
2022-07-25T05:05:47.834Z,25.33
2022-07-25T05:08:15.283Z,25.32
2022-07-25T05:10:43.118Z,25.32
2022-07-25T05:13:10.755Z,25.33
2022-07-25T05:15:40.794Z,25.33
2022-07-25T05:18:08.322Z,25.33
2022-07-25T05:20:35.762Z,25.32
2022-07-25T05:23:03.209Z,25.32
2022-07-25T05:25:30.628Z,25.34
2022-07-25T05:27:58.736Z,25.34
2022-07-25T05:30:26.265Z,25.34
2022-07-25T05:32:55.095Z,25.34
2022-07-25T05:35:22.507Z,25.33
2022-07-25T05:37:49.871Z,25.35
2022-07-25T05:40:18.754Z,25.36
2022-07-25T05:42:46.877Z,25.33
2022-07-25T05:45:14.307Z,25.33
2022-07-25T05:47:41.788Z,25.33
2022-07-25T05:50:10.132Z,25.34
2022-07-25T05:52:37.562Z,25.32
2022-07-25T05:55:05.351Z,25.33
2022-07-25T05:57:32.819Z,25.34
2022-07-25T06:00:00.258Z,25.33
2022-07-25T06:02:27.819Z,25.33
2022-07-25T06:04:55.943Z,25.36
2022-07-25T06:07:23.307Z,25.34
2022-07-25T06:09:50.738Z,25.33
2022-07-25T06:12:19.038Z,25.35
2022-07-25T06:14:46.520Z,25.35
2022-07-25T06:17:14.008Z,25.34
2022-07-25T06:19:41.611Z,25.35
2022-07-25T06:22:09.439Z,25.34
2022-07-25T06:24:37.174Z,25.35
2022-07-25T06:27:04.623Z,25.34
2022-07-25T06:29:32.065Z,25.36
2022-07-25T06:31:59.644Z,25.35
2022-07-25T06:34:28.922Z,25.35
2022-07-25T06:37:00.085Z,25.38
2022-07-25T06:39:28.571Z,25.38
2022-07-25T06:41:56.041Z,25.35
2022-07-25T06:44:27.336Z,25.36
2022-07-25T06:46:54.889Z,25.35
2022-07-25T06:49:22.414Z,25.35
2022-07-25T06:51:49.865Z,25.36
2022-07-25T06:54:18.615Z,25.37
2022-07-25T06:56:46.180Z,25.36
2022-07-25T06:59:13.936Z,25.36
2022-07-25T07:01:41.400Z,25.37
2022-07-25T07:04:09.070Z,25.36
2022-07-25T07:06:39.972Z,25.36
2022-07-25T07:09:07.921Z,25.38
2022-07-25T07:11:35.401Z,25.40
2022-07-25T07:14:05.880Z,25.38
2022-07-25T07:16:33.779Z,25.38
2022-07-25T07:19:01.388Z,25.38
2022-07-25T07:21:28.869Z,25.36
2022-07-25T07:23:57.027Z,25.38
2022-07-25T07:26:24.764Z,25.38
2022-07-25T07:28:54.583Z,25.37
2022-07-25T07:31:22.114Z,25.37
2022-07-25T07:33:49.625Z,25.38
2022-07-25T07:36:17.158Z,25.37
2022-07-25T07:38:45.077Z,25.38
2022-07-25T07:41:12.840Z,25.36
2022-07-25T07:43:40.479Z,25.38
2022-07-25T07:46:07.976Z,25.37
2022-07-25T07:48:36.155Z,25.37
2022-07-25T07:51:03.836Z,25.38
2022-07-25T07:53:50.073Z,25.38
2022-07-25T07:56:19.091Z,25.39
2022-07-25T07:58:46.704Z,25.39
2022-07-25T08:01:14.212Z,25.37
2022-07-25T08:03:41.637Z,25.37
2022-07-25T08:06:09.153Z,25.38
2022-07-25T08:08:36.681Z,25.39
2022-07-25T08:11:04.214Z,25.37
2022-07-25T08:13:32.057Z,25.38
2022-07-25T08:16:03.313Z,25.40
2022-07-25T08:18:32.887Z,25.38
2022-07-25T08:21:03.079Z,25.40
2022-07-25T08:23:32.006Z,25.39
2022-07-25T08:26:00.693Z,25.39
2022-07-25T08:28:28.576Z,25.39
2022-07-25T08:30:56.307Z,25.40
2022-07-25T08:33:23.921Z,25.39
2022-07-25T08:35:53.680Z,25.40
2022-07-25T08:38:21.808Z,25.40
2022-07-25T08:40:49.320Z,25.40
2022-07-25T08:43:17.005Z,25.40
2022-07-25T08:45:48.461Z,25.39
2022-07-25T08:48:23.541Z,25.40
2022-07-25T08:50:51.444Z,25.40
2022-07-25T08:53:35.565Z,25.40
2022-07-25T08:56:13.289Z,25.39
2022-07-25T08:58:44.049Z,25.39
2022-07-25T09:01:15.043Z,25.39
2022-07-25T09:03:43.466Z,25.39
2022-07-25T09:06:19.513Z,25.38
2022-07-25T09:08:57.310Z,25.40
2022-07-25T09:11:33.502Z,25.40
2022-07-25T09:14:09.530Z,25.40
2022-07-25T09:16:43.177Z,25.42
2022-07-25T09:19:15.586Z,25.40
2022-07-25T09:21:45.487Z,25.41
2022-07-25T09:24:18.020Z,25.42
2022-07-25T09:26:49.854Z,25.40
2022-07-25T09:29:26.035Z,25.41
2022-07-25T09:31:54.470Z,25.39
2022-07-25T09:34:38.132Z,25.39
2022-07-25T09:37:09.789Z,25.40
2022-07-25T09:39:48.504Z,25.39
2022-07-25T09:42:25.798Z,25.40
2022-07-25T09:45:09.971Z,25.40
2022-07-25T09:47:40.769Z,25.41
2022-07-25T09:50:09.604Z,25.42
2022-07-25T09:52:37.089Z,25.40
2022-07-25T09:55:05.332Z,25.39
2022-07-25T09:57:32.811Z,25.40
2022-07-25T10:00:00.721Z,25.41
2022-07-25T10:02:49.611Z,25.41
2022-07-25T10:05:37.514Z,25.44
2022-07-25T10:08:08.899Z,25.41
2022-07-25T10:10:43.835Z,25.41
2022-07-25T10:13:18.223Z,25.41
2022-07-25T10:15:50.038Z,25.41
2022-07-25T10:18:22.573Z,25.42
2022-07-25T10:20:51.915Z,25.43
2022-07-25T10:23:20.559Z,25.43
2022-07-25T10:25:58.950Z,25.41
2022-07-25T10:28:44.586Z,25.41
2022-07-25T10:31:22.109Z,25.44
2022-07-25T10:33:55.130Z,25.43
2022-07-25T10:36:22.818Z,25.43
2022-07-25T10:38:56.174Z,25.41
2022-07-25T10:41:26.041Z,25.43
2022-07-25T10:43:56.512Z,25.42
2022-07-25T10:46:27.282Z,25.41
2022-07-25T10:49:03.316Z,25.41
2022-07-25T10:51:41.512Z,25.43
2022-07-25T10:54:13.378Z,25.44
2022-07-25T10:56:59.443Z,25.42
2022-07-25T10:59:36.494Z,25.42
2022-07-25T11:02:05.268Z,25.43
2022-07-25T11:04:35.800Z,25.41
2022-07-25T11:07:10.984Z,25.41
2022-07-25T11:09:38.680Z,25.44
2022-07-25T11:12:06.241Z,25.43
2022-07-25T11:14:38.111Z,25.43
2022-07-25T11:17:19.788Z,25.41
2022-07-25T11:20:00.125Z,25.40
2022-07-25T11:22:28.369Z,25.43
2022-07-25T11:24:57.288Z,25.40
2022-07-25T11:27:29.121Z,25.40
2022-07-25T11:30:16.353Z,25.40
2022-07-25T11:32:49.649Z,25.43
2022-07-25T11:35:21.281Z,25.41
2022-07-25T11:37:52.635Z,25.44
2022-07-25T11:40:20.476Z,25.41
2022-07-25T11:42:48.883Z,25.43
2022-07-25T11:45:18.412Z,25.41
2022-07-25T11:47:47.038Z,25.44
2022-07-25T11:50:18.650Z,25.44
2022-07-25T11:52:46.084Z,25.43
2022-07-25T11:55:16.413Z,25.41
2022-07-25T11:57:44.847Z,25.44
2022-07-25T12:00:20.767Z,25.43
2022-07-25T12:02:50.699Z,25.43
2022-07-25T12:05:20.958Z,25.44
2022-07-25T12:07:52.581Z,25.44
2022-07-25T12:10:24.354Z,25.43
2022-07-25T12:12:57.195Z,25.43
2022-07-25T12:15:28.758Z,25.44
2022-07-25T12:17:56.738Z,25.42
2022-07-25T12:20:25.890Z,25.43
2022-07-25T12:22:57.786Z,25.41
2022-07-25T12:25:30.459Z,25.43
2022-07-25T12:27:58.985Z,25.44
2022-07-25T12:30:27.566Z,25.44
2022-07-25T12:32:56.217Z,25.45
2022-07-25T12:35:23.724Z,25.44
2022-07-25T12:37:51.493Z,25.44
2022-07-25T12:40:19.006Z,25.44
2022-07-25T12:42:47.718Z,25.43
2022-07-25T12:45:18.402Z,25.44
2022-07-25T12:47:46.556Z,25.44
2022-07-25T12:50:14.831Z,25.44
2022-07-25T12:52:43.386Z,25.46
2022-07-25T12:55:15.371Z,25.45
2022-07-25T12:57:42.921Z,25.45
2022-07-25T13:00:12.938Z,25.45
2022-07-25T13:02:40.452Z,25.43
2022-07-25T13:05:08.089Z,25.44
2022-07-25T13:07:35.519Z,25.45
2022-07-25T13:10:03.790Z,25.44
2022-07-25T13:12:31.315Z,25.44
2022-07-25T13:14:58.773Z,25.43
2022-07-25T13:17:27.925Z,25.43
2022-07-25T13:19:55.925Z,25.45
2022-07-25T13:22:26.588Z,25.45
2022-07-25T13:24:54.005Z,25.46
2022-07-25T13:27:21.747Z,25.45
2022-07-25T13:29:54.696Z,25.46
2022-07-25T13:32:22.766Z,25.46
2022-07-25T13:34:50.430Z,25.46
2022-07-25T13:37:17.929Z,25.47
2022-07-25T13:39:45.371Z,25.47
2022-07-25T13:42:16.037Z,25.45
2022-07-25T13:44:43.609Z,25.45
2022-07-25T13:47:11.247Z,25.45
2022-07-25T13:49:38.849Z,25.47
2022-07-25T13:52:07.490Z,25.45
2022-07-25T13:54:34.987Z,25.47
2022-07-25T13:57:03.054Z,25.46
2022-07-25T13:59:30.545Z,25.46
2022-07-25T14:01:58.113Z,25.45
2022-07-25T14:04:25.688Z,25.44
2022-07-25T14:06:53.250Z,25.45
2022-07-25T14:09:22.172Z,25.46
2022-07-25T14:11:49.690Z,25.45
2022-07-25T14:14:17.354Z,25.47
2022-07-25T14:16:45.303Z,25.45
2022-07-25T14:19:16.326Z,25.47
2022-07-25T14:21:43.840Z,25.46
2022-07-25T14:24:11.333Z,25.48
2022-07-25T14:26:38.705Z,25.48
2022-07-25T14:29:10.420Z,25.46
2022-07-25T14:31:41.563Z,25.47
2022-07-25T14:34:09.149Z,25.47
2022-07-25T14:36:36.723Z,25.48
2022-07-25T14:39:04.613Z,25.48
2022-07-25T14:41:32.827Z,25.49
2022-07-25T14:44:00.707Z,25.48
2022-07-25T14:46:28.225Z,25.49
2022-07-25T14:48:55.807Z,25.49
2022-07-25T14:51:23.605Z,25.48
2022-07-25T14:53:53.301Z,25.49
2022-07-25T14:56:20.901Z,25.48
2022-07-25T14:58:48.317Z,25.50
2022-07-25T15:01:18.856Z,25.49
2022-07-25T15:03:46.537Z,25.50
2022-07-25T15:06:17.445Z,25.49
2022-07-25T15:08:45.440Z,25.49
2022-07-25T15:11:12.932Z,25.49
2022-07-25T15:13:40.361Z,25.51
2022-07-25T15:16:08.300Z,25.51
2022-07-25T15:18:52.321Z,25.49
2022-07-25T15:21:23.642Z,25.50
2022-07-25T15:23:52.570Z,25.49
2022-07-25T15:26:20.476Z,25.48
2022-07-25T15:28:48.787Z,25.50
2022-07-25T15:31:18.345Z,25.50
2022-07-25T15:33:45.840Z,25.49
2022-07-25T15:36:13.266Z,25.48
2022-07-25T15:38:40.785Z,25.49
2022-07-25T15:41:10.693Z,25.48
2022-07-25T15:43:39.940Z,25.50
2022-07-25T15:46:10.810Z,25.49
2022-07-25T15:48:38.678Z,25.49
2022-07-25T15:51:06.561Z,25.49
2022-07-25T15:53:34.065Z,25.50
2022-07-25T15:56:01.607Z,25.49
2022-07-25T15:58:29.011Z,25.49
2022-07-25T16:00:59.428Z,25.48
2022-07-25T16:03:26.951Z,25.49
2022-07-25T16:05:58.907Z,25.49
2022-07-25T16:08:26.300Z,25.50
2022-07-25T16:10:53.758Z,25.48
2022-07-25T16:13:21.302Z,25.50
2022-07-25T16:15:48.764Z,25.50
2022-07-25T16:18:16.234Z,25.50
2022-07-25T16:20:43.743Z,25.49
2022-07-25T16:23:11.268Z,25.49
2022-07-25T16:25:38.711Z,25.50
2022-07-25T16:28:06.525Z,25.50
2022-07-25T16:30:34.016Z,25.50
2022-07-25T16:33:01.451Z,25.51
2022-07-25T16:35:28.959Z,25.51
2022-07-25T16:37:56.416Z,25.51
2022-07-25T16:40:30.744Z,25.49
2022-07-25T16:43:00.387Z,25.51
2022-07-25T16:45:28.027Z,25.51
2022-07-25T16:47:55.471Z,25.52
2022-07-25T16:50:22.913Z,25.50
2022-07-25T16:52:50.340Z,25.52
2022-07-25T16:55:17.870Z,25.50
2022-07-25T16:57:45.324Z,25.51
2022-07-25T17:00:13.190Z,25.51
2022-07-25T17:02:44.041Z,25.51
2022-07-25T17:05:11.522Z,25.51
2022-07-25T17:07:39.900Z,25.51
2022-07-25T17:10:10.526Z,25.52
2022-07-25T17:12:38.950Z,25.52
2022-07-25T17:15:08.475Z,25.51
2022-07-25T17:17:36.009Z,25.52
2022-07-25T17:20:04.189Z,25.51
2022-07-25T17:22:31.658Z,25.50
2022-07-25T17:25:01.156Z,25.53
2022-07-25T17:27:28.624Z,25.50
2022-07-25T17:29:56.087Z,25.50
2022-07-25T17:32:27.833Z,25.52
2022-07-25T17:34:57.720Z,25.52
2022-07-25T17:37:27.705Z,25.53
2022-07-25T17:39:55.355Z,25.51
2022-07-25T17:42:24.011Z,25.53
2022-07-25T17:44:51.882Z,25.52
2022-07-25T17:47:19.396Z,25.52
2022-07-25T17:49:46.827Z,25.52
2022-07-25T17:52:15.676Z,25.51
2022-07-25T17:54:43.200Z,25.53
2022-07-25T17:57:10.706Z,25.51
2022-07-25T17:59:38.164Z,25.52
2022-07-25T18:02:05.693Z,25.50
2022-07-25T18:04:33.475Z,25.52
2022-07-25T18:07:00.885Z,25.52
2022-07-25T18:09:28.427Z,25.53
2022-07-25T18:11:55.966Z,25.52
2022-07-25T18:14:24.002Z,25.51
2022-07-25T18:16:51.480Z,25.51
2022-07-25T18:19:19.003Z,25.50
2022-07-25T18:21:47.711Z,25.50
2022-07-25T18:24:15.170Z,25.51
2022-07-25T18:26:42.587Z,25.50
2022-07-25T18:29:13.072Z,25.51
2022-07-25T18:31:40.635Z,25.52
2022-07-25T18:34:08.547Z,25.52
2022-07-25T18:36:40.219Z,25.52
2022-07-25T18:39:07.658Z,25.52
2022-07-25T18:41:35.427Z,25.50
2022-07-25T18:44:06.728Z,25.50
2022-07-25T18:46:34.848Z,25.52
2022-07-25T18:49:03.174Z,25.52
2022-07-25T18:51:30.647Z,25.53
2022-07-25T18:53:58.089Z,25.51
2022-07-25T18:56:25.590Z,25.53
2022-07-25T18:58:53.123Z,25.52
2022-07-25T19:01:21.185Z,25.53
2022-07-25T19:03:48.750Z,25.54
2022-07-25T19:06:16.473Z,25.52
2022-07-25T19:08:43.971Z,25.52
2022-07-25T19:11:11.447Z,25.52
2022-07-25T19:13:49.518Z,25.51
2022-07-25T19:16:17.947Z,25.52
2022-07-25T19:18:45.467Z,25.54
2022-07-25T19:21:12.978Z,25.54
2022-07-25T19:23:40.415Z,25.52
2022-07-25T19:26:07.854Z,25.52
2022-07-25T19:28:35.627Z,25.53
2022-07-25T19:31:06.265Z,25.53
2022-07-25T19:33:36.022Z,25.52
2022-07-25T19:36:04.395Z,25.53
2022-07-25T19:38:32.392Z,25.53
2022-07-25T19:41:00.236Z,25.53
2022-07-25T19:43:27.756Z,25.53
2022-07-25T19:45:55.212Z,25.54
2022-07-25T19:48:23.995Z,25.53
2022-07-25T19:50:52.167Z,25.54
2022-07-25T19:53:19.660Z,25.51
2022-07-25T19:55:47.117Z,25.53
2022-07-25T19:58:14.490Z,25.53
2022-07-25T20:00:41.939Z,25.53
2022-07-25T20:03:09.368Z,25.54
2022-07-25T20:05:36.876Z,25.53
2022-07-25T20:08:04.552Z,25.54
2022-07-25T20:10:31.954Z,25.54
2022-07-25T20:13:01.446Z,25.53
2022-07-25T20:15:29.270Z,25.55
2022-07-25T20:17:56.963Z,25.53
2022-07-25T20:20:25.393Z,25.53
2022-07-25T20:22:53.276Z,25.54
2022-07-25T20:25:21.333Z,25.53
2022-07-25T20:27:51.525Z,25.54
2022-07-25T20:30:19.093Z,25.54
2022-07-25T20:32:48.768Z,25.55
2022-07-25T20:35:16.205Z,25.53
2022-07-25T20:37:43.640Z,25.55
2022-07-25T20:40:12.192Z,25.54
2022-07-25T20:42:40.643Z,25.53
2022-07-25T20:45:08.796Z,25.54
2022-07-25T20:47:36.233Z,25.52
2022-07-25T20:50:03.954Z,25.53
2022-07-25T20:52:35.176Z,25.54
2022-07-25T20:55:06.775Z,25.54
2022-07-25T20:57:34.956Z,25.54
2022-07-25T21:00:02.682Z,25.54
2022-07-25T21:02:30.179Z,25.54
2022-07-25T21:04:57.657Z,25.54
2022-07-25T21:07:25.134Z,25.54
2022-07-25T21:09:55.149Z,25.53
2022-07-25T21:12:22.592Z,25.53
2022-07-25T21:14:50.101Z,25.52
2022-07-25T21:17:17.572Z,25.54
2022-07-25T21:19:46.148Z,25.55
2022-07-25T21:22:13.663Z,25.54
2022-07-25T21:24:41.680Z,25.54
2022-07-25T21:27:09.216Z,25.55
2022-07-25T21:29:36.639Z,25.55
2022-07-25T21:32:04.812Z,25.54
2022-07-25T21:34:33.540Z,25.55
2022-07-25T21:37:01.032Z,25.53
2022-07-25T21:39:29.540Z,25.56
2022-07-25T21:41:59.624Z,25.56
2022-07-25T21:44:28.556Z,25.53
2022-07-25T21:46:55.975Z,25.55
2022-07-25T21:49:42.753Z,25.55
2022-07-25T21:52:13.725Z,25.55
2022-07-25T21:54:42.552Z,25.55
2022-07-25T21:57:13.224Z,25.56
2022-07-25T21:59:42.477Z,25.55
2022-07-25T22:02:10.089Z,25.55
2022-07-25T22:04:37.552Z,25.51
2022-07-25T22:07:04.972Z,25.53
2022-07-25T22:09:32.367Z,25.54
2022-07-25T22:11:59.818Z,25.55
2022-07-25T22:14:27.300Z,25.55
2022-07-25T22:16:54.805Z,25.54
2022-07-25T22:19:23.623Z,25.57
2022-07-25T22:21:51.163Z,25.56
2022-07-25T22:24:18.569Z,25.58
2022-07-25T22:26:46.031Z,25.55
2022-07-25T22:29:13.513Z,25.55
2022-07-25T22:31:41.036Z,25.55
2022-07-25T22:34:09.186Z,25.53
2022-07-25T22:36:36.628Z,25.53
2022-07-25T22:39:04.279Z,25.55
2022-07-25T22:41:32.068Z,25.52
2022-07-25T22:44:00.201Z,25.53
2022-07-25T22:46:29.343Z,25.55
2022-07-25T22:51:25.178Z,25.54
2022-07-25T22:53:52.684Z,25.52
2022-07-25T22:56:20.136Z,25.52
2022-07-25T22:58:49.169Z,25.53
2022-07-25T23:01:17.830Z,25.51
2022-07-25T23:03:45.786Z,25.52
2022-07-25T23:06:16.394Z,25.53
2022-07-25T23:08:43.792Z,25.55
2022-07-25T23:11:11.292Z,25.54
2022-07-25T23:13:38.720Z,25.53
2022-07-25T23:16:10.490Z,25.53
2022-07-25T23:18:38.502Z,25.54
2022-07-25T23:21:06.187Z,25.55
2022-07-25T23:23:33.645Z,25.55
2022-07-25T23:26:01.257Z,25.55
2022-07-25T23:28:28.841Z,25.53
2022-07-25T23:30:56.308Z,25.54
2022-07-25T23:33:25.378Z,25.55
2022-07-25T23:35:56.875Z,25.54
2022-07-25T23:38:24.694Z,25.54
2022-07-25T23:40:54.095Z,25.54
2022-07-25T23:43:54.986Z,25.55
2022-07-25T23:46:08.999Z,25.56
2022-07-25T23:48:37.491Z,25.55
2022-07-25T23:51:05.008Z,25.55
2022-07-25T23:53:34.525Z,25.55
2022-07-25T23:56:01.996Z,25.55
2022-07-25T23:58:29.452Z,25.55
